Cannon Beach, OR (97110)

10:51 AM PST on December 27, 2014 (GMT -0800)
APRSWXNET Cannon Beach OR US | Change Station
CLOSE
Current Station
Personal Weather Station
Location: Cannon Beach, OR
Elevation: 22 ft
Nearby Weather Stations

Elev 22 ft 45.89 °N, 123.96 °W | Updated 53 minutes ago

Rain
Rain
52 °F
Feels Like 52 °F
N
17
Wind Variable Wind from WSW
Gusts 20.0 mph

Today
High -- | Low -- °F
--% Chance of Precip.
Yesterday
High -- | Low -- °F
Precip. -- in
7:56 AM 4:37 PM
Waxing Crescent, 39% visible
Pressure 30.22 in
Visibility 7.0 miles
Clouds Few 1300 ft
Scattered Clouds 2900 ft
Overcast 4900 ft
Dew Point 50 °F
Humidity 93%
Rainfall 0.14 in
Snow Depth Not available.
UV 0 out of 12
Pollen .50 out of 12
Air Quality Not available.
Flu Activity Not available.
SPECI KAST 271807Z AUTO 26013G21KT 7SM -RA FEW013 SCT029 OVC049 10/08 A3022 RMK AO2 P0001 T01000083

More Conditions Fewer Conditions

Pressure 30.22 in
Visibility 7.0 miles
Clouds Few 1300 ft
Scattered Clouds 2900 ft
Overcast 4900 ft
Dew Point 50 °F
Humidity 93%
Rainfall 0.14 in
Snow Depth Not available.
UV 0 out of 12
Pollen .50 out of 12
Air Quality Not available.
Flu Activity Not available.
SPECI KAST 271807Z AUTO 26013G21KT 7SM -RA FEW013 SCT029 OVC049 10/08 A3022 RMK AO2 P0001 T01000083

More Conditions Fewer Conditions

10-Day Weather Forecast

Almanac

Astronomy

Dec. 27, 2014 Rise Set
Actual Time
Civil Twilight
Nautical Twilight
Astronomical Twilight
Moon
Length of Visible Light
Length of Day
Tomorrow will be .
, % of the Moon is Illuminated

Today's Extremes

State Highs State Lows

Community

WunderPhotos

Upload Photos

1,780,988 photos uploaded!

WunderBlogs® & News

Nearby

Air Quality

  Air Quality AQ Index Pollutant
Not available.

Snow Depth

Station Depth Elevation

Earthquake Activity

City Distance Mag. Time & Date
Minimum magnitude displayed is 2.5.

Coastal Water Temperatures

Place Temperature

Nearby Weather Stations